createdAt,value
2019-06-07T00:00:48.561Z,12.19
2019-06-07T00:01:48.550Z,12.15
2019-06-07T00:02:48.564Z,12.29
2019-06-07T00:03:48.548Z,12.23
2019-06-07T00:04:48.564Z,12.18
2019-06-07T00:05:48.547Z,12.13
2019-06-07T00:06:48.501Z,12.15
2019-06-07T00:07:48.541Z,12.12
2019-06-07T00:08:48.508Z,12.12
2019-06-07T00:09:48.492Z,12.08
2019-06-07T00:10:48.458Z,12.11
2019-06-07T00:11:48.446Z,12.05
2019-06-07T00:12:48.446Z,12.03
2019-06-07T00:13:48.437Z,12.01
2019-06-07T00:14:48.428Z,12.05
2019-06-07T00:15:48.413Z,12.01
2019-06-07T00:16:48.439Z,12.07
2019-06-07T00:17:48.396Z,12.08
2019-06-07T00:18:48.400Z,12.05
2019-06-07T00:19:48.405Z,12.13
2019-06-07T00:20:48.357Z,12.15
2019-06-07T00:22:29.632Z,12.13
2019-06-07T00:22:49.335Z,12.00
2019-06-07T00:23:48.332Z,12.00
2019-06-07T00:24:48.313Z,12.04
2019-06-07T00:25:48.310Z,12.04
2019-06-07T00:26:58.575Z,11.97
2019-06-07T00:27:49.287Z,11.94
2019-06-07T00:28:48.283Z,11.96
2019-06-07T00:29:48.264Z,11.90
2019-06-07T00:30:52.064Z,11.90
2019-06-07T00:31:48.234Z,11.90
2019-06-07T00:32:48.228Z,11.84
2019-06-07T00:33:48.239Z,11.85
2019-06-07T00:34:48.203Z,11.85
2019-06-07T00:35:48.210Z,11.88
2019-06-07T00:36:48.401Z,11.98
2019-06-07T00:37:48.191Z,11.97
2019-06-07T00:38:48.186Z,11.90
2019-06-07T00:40:12.805Z,11.90
2019-06-07T00:40:49.142Z,11.87
2019-06-07T00:41:48.128Z,11.87
2019-06-07T00:42:48.124Z,11.88
2019-06-07T00:43:48.129Z,11.90
2019-06-07T00:44:48.100Z,11.82
2019-06-07T00:45:48.085Z,11.75
2019-06-07T00:46:48.101Z,11.75
2019-06-07T00:47:48.090Z,11.79
2019-06-07T00:48:48.082Z,11.72
2019-06-07T00:49:48.057Z,11.72
2019-06-07T00:50:48.057Z,11.82
2019-06-07T00:51:51.018Z,11.84
2019-06-07T00:53:26.903Z,11.79
2019-06-07T00:53:49.027Z,11.77
2019-06-07T00:54:48.007Z,11.75
2019-06-07T00:55:47.982Z,11.69
2019-06-07T00:56:47.980Z,11.64
2019-06-07T00:57:47.974Z,11.64
2019-06-07T00:59:09.668Z,11.62
2019-06-07T00:59:48.951Z,11.62
2019-06-07T01:00:47.939Z,11.56
2019-06-07T01:01:47.920Z,11.62
2019-06-07T01:02:47.916Z,11.56
2019-06-07T01:03:47.898Z,11.67
2019-06-07T01:04:47.927Z,11.63
2019-06-07T01:05:47.881Z,11.63
2019-06-07T01:06:47.875Z,11.69
2019-06-07T01:07:47.851Z,11.72
2019-06-07T01:08:47.840Z,11.67
2019-06-07T01:09:47.846Z,11.66
2019-06-07T01:10:53.551Z,11.66
2019-06-07T01:11:48.830Z,11.69
2019-06-07T01:12:47.814Z,11.70
2019-06-07T01:13:47.788Z,11.74
2019-06-07T01:14:47.788Z,11.75
2019-06-07T01:15:47.766Z,11.75
2019-06-07T01:16:57.477Z,11.74
2019-06-07T01:18:33.009Z,11.69
2019-06-07T01:18:51.295Z,11.63
2019-06-07T01:19:47.745Z,11.54
2019-06-07T01:20:47.714Z,11.54
2019-06-07T01:21:47.731Z,11.57
2019-06-07T01:22:47.707Z,11.59
2019-06-07T01:24:08.230Z,11.48
2019-06-07T01:24:48.701Z,11.44
2019-06-07T01:25:47.664Z,11.48
2019-06-07T01:26:47.658Z,11.46
2019-06-07T01:27:47.639Z,11.46
2019-06-07T01:28:47.701Z,11.49
2019-06-07T01:29:47.639Z,11.39
2019-06-07T01:30:47.607Z,11.45
2019-06-07T01:31:47.596Z,11.46
2019-06-07T01:32:47.597Z,11.59
2019-06-07T01:33:51.185Z,11.60
2019-06-07T01:34:47.576Z,11.62
2019-06-07T01:35:47.568Z,11.57
2019-06-07T01:36:47.543Z,11.66
2019-06-07T01:37:47.535Z,11.60
2019-06-07T01:38:47.523Z,11.62
2019-06-07T01:39:47.532Z,11.53
2019-06-07T01:40:47.500Z,11.48
2019-06-07T01:41:47.491Z,11.51
2019-06-07T01:42:47.479Z,11.62
2019-06-07T01:43:47.469Z,11.59
2019-06-07T01:44:47.466Z,11.62
2019-06-07T01:45:47.458Z,11.54
2019-06-07T01:46:47.436Z,11.54
2019-06-07T01:47:47.438Z,11.53
2019-06-07T01:48:49.728Z,11.46
2019-06-07T01:49:47.432Z,11.45
2019-06-07T01:50:47.398Z,11.53
2019-06-07T01:51:47.384Z,11.54
2019-06-07T01:52:47.383Z,11.62
2019-06-07T01:53:47.359Z,11.63
2019-06-07T01:54:58.045Z,11.63
2019-06-07T01:55:48.349Z,11.51
2019-06-07T01:56:47.327Z,11.60
2019-06-07T01:57:48.485Z,11.56
2019-06-07T01:58:47.313Z,11.62
2019-06-07T01:59:47.339Z,11.53
2019-06-07T02:00:47.296Z,11.51
2019-06-07T02:01:47.285Z,11.51
2019-06-07T02:02:47.281Z,11.57
2019-06-07T02:03:47.283Z,11.59
2019-06-07T02:04:48.129Z,11.62
2019-06-07T02:05:47.255Z,11.60
2019-06-07T02:06:47.223Z,11.57
2019-06-07T02:07:47.213Z,11.57
2019-06-07T02:08:47.234Z,11.54
2019-06-07T02:09:47.194Z,11.62
2019-06-07T02:10:47.187Z,11.57
2019-06-07T02:11:47.169Z,11.56
2019-06-07T02:12:47.159Z,11.66
2019-06-07T02:13:47.157Z,11.62
2019-06-07T02:14:47.157Z,11.63
2019-06-07T02:15:47.150Z,11.75
2019-06-07T02:16:47.134Z,11.66
2019-06-07T02:17:47.124Z,11.75
2019-06-07T02:19:01.343Z,11.75
2019-06-07T02:19:48.083Z,11.74
2019-06-07T02:20:47.101Z,11.74
2019-06-07T02:21:47.081Z,11.78
2019-06-07T02:22:47.070Z,11.79
2019-06-07T02:23:47.046Z,11.85
2019-06-07T02:25:33.142Z,11.78
2019-06-07T02:25:50.482Z,11.81
2019-06-07T02:26:47.017Z,11.72
2019-06-07T02:27:47.001Z,11.84
2019-06-07T02:28:46.990Z,11.75
2019-06-07T02:29:46.982Z,11.81
2019-06-07T02:30:58.840Z,11.75
2019-06-07T02:31:47.956Z,11.90
2019-06-07T02:32:46.958Z,11.93
2019-06-07T02:33:46.951Z,11.79
2019-06-07T02:34:46.940Z,11.77
2019-06-07T02:35:46.936Z,11.88
2019-06-07T02:36:46.920Z,11.77
2019-06-07T02:37:46.906Z,11.84
2019-06-07T02:38:46.887Z,11.96
2019-06-07T02:39:46.878Z,11.93
2019-06-07T02:40:46.903Z,11.90
2019-06-07T02:41:46.855Z,11.88
2019-06-07T02:42:46.854Z,11.87
2019-06-07T02:43:46.834Z,12.00
2019-06-07T02:44:46.846Z,11.88
2019-06-07T02:45:46.836Z,11.78
2019-06-07T02:46:49.829Z,11.87
2019-06-07T02:47:46.791Z,11.88
2019-06-07T02:48:46.781Z,11.90
2019-06-07T02:49:46.776Z,11.88
2019-06-07T02:50:46.775Z,11.88
2019-06-07T02:51:46.756Z,11.88
2019-06-07T02:52:46.743Z,11.85
2019-06-07T02:53:46.765Z,11.85
2019-06-07T02:54:46.717Z,11.93
2019-06-07T02:56:34.349Z,11.87
2019-06-07T02:56:57.867Z,11.96
2019-06-07T02:57:47.690Z,11.87
2019-06-07T02:58:46.674Z,11.97
2019-06-07T03:00:07.032Z,11.96
2019-06-07T03:01:06.979Z,11.88
2019-06-07T03:01:47.690Z,11.87
2019-06-07T03:02:46.664Z,11.87
2019-06-07T03:03:46.626Z,11.87
2019-06-07T03:04:46.628Z,11.94
2019-06-07T03:05:46.621Z,11.98
2019-06-07T03:06:46.593Z,11.94
2019-06-07T03:07:46.587Z,12.01
2019-06-07T03:08:46.572Z,11.97
2019-06-07T03:09:46.560Z,11.98
2019-06-07T03:10:46.559Z,11.97
2019-06-07T03:11:46.541Z,12.00
2019-06-07T03:12:46.569Z,11.88
2019-06-07T03:13:46.516Z,12.00
2019-06-07T03:14:46.516Z,11.93
2019-06-07T03:15:50.185Z,11.88
2019-06-07T03:16:46.498Z,11.88
2019-06-07T03:17:46.482Z,11.79
2019-06-07T03:18:46.473Z,11.88
2019-06-07T03:19:46.457Z,11.90
2019-06-07T03:21:02.799Z,11.94
2019-06-07T03:21:47.432Z,11.78
2019-06-07T03:22:46.427Z,11.85
2019-06-07T03:23:46.412Z,11.84
2019-06-07T03:24:46.407Z,11.81
2019-06-07T03:25:46.399Z,11.82
2019-06-07T03:27:31.878Z,11.79
2019-06-07T03:27:50.178Z,11.81
2019-06-07T03:28:46.360Z,11.82
2019-06-07T03:29:46.347Z,11.74
2019-06-07T03:31:00.955Z,11.74
2019-06-07T03:31:48.343Z,11.74
2019-06-07T03:32:48.270Z,11.74
2019-06-07T03:33:46.339Z,11.74
2019-06-07T03:34:46.295Z,11.74
2019-06-07T03:35:46.283Z,11.70
2019-06-07T03:36:46.293Z,11.69
2019-06-07T03:37:46.263Z,11.64
2019-06-07T03:38:46.269Z,11.74
2019-06-07T03:39:46.262Z,11.72
2019-06-07T03:40:46.238Z,11.81
2019-06-07T03:42:05.259Z,11.72
2019-06-07T03:42:47.211Z,11.75
2019-06-07T03:43:46.211Z,11.87
2019-06-07T03:44:46.202Z,11.81
2019-06-07T03:45:46.178Z,11.72
2019-06-07T03:46:46.177Z,11.77
2019-06-07T03:47:46.182Z,11.85
2019-06-07T03:48:46.146Z,11.81
2019-06-07T03:49:46.155Z,11.84
2019-06-07T03:50:46.125Z,11.81
2019-06-07T03:51:46.128Z,11.82
2019-06-07T03:52:46.105Z,11.78
2019-06-07T03:53:46.097Z,11.87
2019-06-07T03:54:46.222Z,11.84
2019-06-07T03:55:46.071Z,11.74
2019-06-07T03:56:46.104Z,11.82
2019-06-07T03:58:30.247Z,11.78
2019-06-07T03:58:50.069Z,11.81
2019-06-07T03:59:46.075Z,11.77
2019-06-07T04:00:46.019Z,11.74
2019-06-07T04:01:46.047Z,11.72
2019-06-07T04:02:46.012Z,11.74
2019-06-07T04:03:51.430Z,11.77
2019-06-07T04:04:46.986Z,11.79
2019-06-07T04:05:45.967Z,11.84
2019-06-07T04:06:45.967Z,11.82
2019-06-07T04:07:45.976Z,11.77
2019-06-07T04:08:45.936Z,11.75
2019-06-07T04:09:45.931Z,11.70
2019-06-07T04:10:59.212Z,11.69
2019-06-07T04:11:46.921Z,11.75
2019-06-07T04:12:45.909Z,11.87
2019-06-07T04:13:45.888Z,11.77
2019-06-07T04:14:45.880Z,11.82
2019-06-07T04:15:45.915Z,11.79
2019-06-07T04:16:46.146Z,11.85
2019-06-07T04:18:01.251Z,11.82
2019-06-07T04:18:46.832Z,11.84
2019-06-07T04:19:45.835Z,11.81
2019-06-07T04:20:45.878Z,11.78
2019-06-07T04:21:45.799Z,11.81
2019-06-07T04:22:45.789Z,11.84
2019-06-07T04:23:45.976Z,11.90
2019-06-07T04:24:45.782Z,11.84
2019-06-07T04:25:45.754Z,11.78
2019-06-07T04:26:46.843Z,11.81
2019-06-07T04:27:45.741Z,11.81
2019-06-07T04:30:05.936Z,11.75
2019-06-07T04:30:46.701Z,11.77
2019-06-07T04:31:45.690Z,11.79
2019-06-07T04:32:45.692Z,11.88
2019-06-07T04:33:45.671Z,11.81
2019-06-07T04:34:45.676Z,11.87
2019-06-07T04:35:45.648Z,11.82
2019-06-07T04:37:46.634Z,11.88
2019-06-07T04:38:45.616Z,11.87
2019-06-07T04:39:45.646Z,11.79
2019-06-07T04:40:47.010Z,11.84
2019-06-07T04:41:45.587Z,11.96
2019-06-07T04:42:46.050Z,11.88
2019-06-07T04:43:45.586Z,11.79
2019-06-07T04:44:45.554Z,11.81
2019-06-07T04:45:50.795Z,11.82
2019-06-07T04:46:46.531Z,11.84
2019-06-07T04:47:45.582Z,11.87
2019-06-07T04:48:45.548Z,11.82
2019-06-07T04:49:45.519Z,11.87
2019-06-07T04:50:45.491Z,11.90
2019-06-07T04:51:45.501Z,11.90
2019-06-07T04:52:45.901Z,11.90
2019-06-07T04:53:45.466Z,11.90
2019-06-07T04:54:46.069Z,11.90
2019-06-07T04:55:45.440Z,11.85
2019-06-07T04:56:45.448Z,11.90
2019-06-07T04:57:45.446Z,12.03
2019-06-07T04:58:45.426Z,12.05
2019-06-07T05:00:52.086Z,12.04
2019-06-07T05:01:46.372Z,12.12
2019-06-07T05:02:45.366Z,12.08
2019-06-07T05:03:45.354Z,12.08
2019-06-07T05:04:45.359Z,12.12
2019-06-07T05:05:45.337Z,12.13
2019-06-07T05:06:45.322Z,12.08
2019-06-07T05:07:46.202Z,12.12
2019-06-07T05:08:45.311Z,12.18
2019-06-07T05:09:45.297Z,12.18
2019-06-07T05:10:45.284Z,12.15
2019-06-07T05:11:45.308Z,12.16
2019-06-07T05:12:45.273Z,12.19
2019-06-07T05:13:45.265Z,12.22
2019-06-07T05:14:45.246Z,12.16
2019-06-07T05:15:45.229Z,12.26
2019-06-07T05:16:45.217Z,12.30
2019-06-07T05:17:45.315Z,12.29
2019-06-07T05:18:45.194Z,12.29
2019-06-07T05:19:45.189Z,12.34
2019-06-07T05:20:45.177Z,12.33
2019-06-07T05:22:02.497Z,12.33
2019-06-07T05:22:46.228Z,12.33
2019-06-07T05:24:07.496Z,12.41
2019-06-07T05:24:46.193Z,12.48
2019-06-07T05:25:45.125Z,12.40
2019-06-07T05:26:45.130Z,12.46
2019-06-07T05:27:46.891Z,12.52
2019-06-07T05:28:45.108Z,12.49
2019-06-07T05:29:58.403Z,12.51
2019-06-07T05:31:04.997Z,12.51
2019-06-07T05:31:46.077Z,12.48
2019-06-07T05:32:46.095Z,12.44
2019-06-07T05:33:45.046Z,12.52
2019-06-07T05:34:47.439Z,12.52
2019-06-07T05:35:45.023Z,12.49
2019-06-07T05:36:45.301Z,12.49
2019-06-07T05:37:46.005Z,12.61
2019-06-07T05:38:45.293Z,12.63
2019-06-07T05:39:46.564Z,12.61
2019-06-07T05:40:48.795Z,12.61
2019-06-07T05:41:44.949Z,12.61
2019-06-07T05:42:46.822Z,12.59
2019-06-07T05:43:55.095Z,12.74
2019-06-07T05:44:46.052Z,12.63
2019-06-07T05:45:47.006Z,12.69
2019-06-07T05:46:47.245Z,12.77
2019-06-07T05:47:50.616Z,12.73
2019-06-07T05:48:45.898Z,12.80
2019-06-07T05:49:47.337Z,12.88
2019-06-07T05:50:56.073Z,12.84
2019-06-07T05:51:45.841Z,12.89
2019-06-07T05:52:47.387Z,12.87
2019-06-07T05:53:46.030Z,12.91
2019-06-07T05:54:46.839Z,12.91
2019-06-07T05:55:47.246Z,12.95
2019-06-07T05:56:45.366Z,12.91
2019-06-07T05:57:49.158Z,13.01
2019-06-07T05:58:45.769Z,12.98
2019-06-07T05:59:47.221Z,13.04
2019-06-07T06:00:47.405Z,13.10
2019-06-07T06:01:56.650Z,13.14
2019-06-07T06:03:04.298Z,13.12
2019-06-07T06:03:48.210Z,13.14
2019-06-07T06:04:48.722Z,13.17
2019-06-07T06:05:53.977Z,13.16
2019-06-07T06:06:47.183Z,13.28
2019-06-07T06:07:50.221Z,13.22
2019-06-07T06:08:47.921Z,13.27
2019-06-07T06:09:46.114Z,13.19
2019-06-07T06:10:48.310Z,13.28
2019-06-07T06:11:58.670Z,13.28
2019-06-07T06:12:51.546Z,13.38
2019-06-07T06:14:05.926Z,13.31
2019-06-07T06:14:47.071Z,13.35
2019-06-07T06:15:56.339Z,13.36
2019-06-07T06:16:48.002Z,13.43
2019-06-07T06:17:47.985Z,13.50
2019-06-07T06:18:47.216Z,13.53
2019-06-07T06:19:47.370Z,13.61
2019-06-07T06:21:12.803Z,13.59
2019-06-07T06:21:46.497Z,13.65
2019-06-07T06:22:48.814Z,13.68
2019-06-07T06:23:48.117Z,13.75
2019-06-07T06:25:17.231Z,13.68
2019-06-07T06:25:53.241Z,13.81
2019-06-07T06:26:51.384Z,13.73
2019-06-07T06:28:45.488Z,13.75
2019-06-07T06:29:46.398Z,13.75
2019-06-07T06:30:47.549Z,13.79
2019-06-07T06:32:35.821Z,13.75
2019-06-07T06:32:52.661Z,13.86
2019-06-07T06:33:47.474Z,13.81
2019-06-07T06:34:47.084Z,13.90
2019-06-07T06:35:48.991Z,13.87
2019-06-07T06:36:47.772Z,13.96
2019-06-07T06:37:50.084Z,13.93
2019-06-07T06:38:47.123Z,14.01
2019-06-07T06:39:46.684Z,14.02
2019-06-07T06:40:49.056Z,13.99
2019-06-07T06:41:56.756Z,14.12
2019-06-07T06:42:48.560Z,14.11
2019-06-07T06:43:49.446Z,14.24
2019-06-07T06:44:47.125Z,14.26
2019-06-07T06:45:49.771Z,14.31
2019-06-07T06:46:50.171Z,14.34
2019-06-07T06:47:47.655Z,14.38
2019-06-07T06:48:48.363Z,14.36
2019-06-07T06:49:46.827Z,14.34
2019-06-07T06:50:46.692Z,14.42
2019-06-07T06:51:47.847Z,14.45
2019-06-07T06:52:48.520Z,14.46
2019-06-07T06:53:46.876Z,14.49
2019-06-07T06:54:50.823Z,14.45
2019-06-07T06:55:49.248Z,14.61
2019-06-07T06:56:46.921Z,14.59
2019-06-07T06:57:45.739Z,14.60
2019-06-07T06:59:27.247Z,14.64
2019-06-07T06:59:47.601Z,14.69
2019-06-07T07:00:53.552Z,14.63
2019-06-07T07:01:49.434Z,14.74
2019-06-07T07:03:35.055Z,14.67
2019-06-07T07:04:12.025Z,14.82
2019-06-07T07:04:46.123Z,14.78
2019-06-07T07:05:46.448Z,14.79
2019-06-07T07:06:45.542Z,14.86
2019-06-07T07:07:45.424Z,14.83
2019-06-07T07:08:47.438Z,14.87
2019-06-07T07:09:51.013Z,14.93
2019-06-07T07:10:45.961Z,14.97
2019-06-07T07:11:58.945Z,14.95
2019-06-07T07:12:45.468Z,15.03
2019-06-07T07:13:46.556Z,14.98
2019-06-07T07:14:47.264Z,15.05
2019-06-07T07:15:46.827Z,15.11
2019-06-07T07:16:45.775Z,15.19
2019-06-07T07:17:53.987Z,15.16
2019-06-07T07:18:47.540Z,15.28
2019-06-07T07:19:47.966Z,15.27
2019-06-07T07:20:45.416Z,15.30
2019-06-07T07:21:45.813Z,15.37
2019-06-07T07:22:46.486Z,15.40
2019-06-07T07:24:08.234Z,15.35
2019-06-07T07:24:46.855Z,15.40
2019-06-07T07:25:46.933Z,15.46
2019-06-07T07:26:46.769Z,15.44
2019-06-07T07:27:44.637Z,15.41
2019-06-07T07:28:46.607Z,15.49
2019-06-07T07:29:47.843Z,15.51
2019-06-07T07:30:45.035Z,15.55
2019-06-07T07:31:45.648Z,15.58
2019-06-07T07:32:45.608Z,15.64
2019-06-07T07:34:24.045Z,15.67
2019-06-07T07:34:46.030Z,15.60
2019-06-07T07:36:07.849Z,15.67
2019-06-07T07:36:47.617Z,15.70
2019-06-07T07:37:46.136Z,15.76
2019-06-07T07:38:48.947Z,15.74
2019-06-07T07:39:48.106Z,15.78
2019-06-07T07:42:10.620Z,15.84
2019-06-07T07:42:45.198Z,15.88
2019-06-07T07:43:45.723Z,15.88
2019-06-07T07:44:46.596Z,15.80
2019-06-07T07:45:45.922Z,15.85
2019-06-07T07:46:44.999Z,15.91
2019-06-07T07:48:01.813Z,15.99
2019-06-07T07:48:45.947Z,15.98
2019-06-07T07:49:44.717Z,16.10
2019-06-07T07:50:47.558Z,16.10
2019-06-07T07:51:44.562Z,16.08
2019-06-07T07:52:45.828Z,16.08
2019-06-07T07:53:51.894Z,16.10
2019-06-07T07:54:44.530Z,16.17
2019-06-07T07:55:45.068Z,16.18
2019-06-07T07:56:45.739Z,16.25
2019-06-07T07:57:45.855Z,16.32
2019-06-07T07:58:46.190Z,16.27
2019-06-07T08:00:01.502Z,16.47
2019-06-07T08:01:04.759Z,16.44
2019-06-07T08:01:46.019Z,16.48
2019-06-07T08:02:43.452Z,16.55
2019-06-07T08:03:43.438Z,16.50
2019-06-07T08:05:13.725Z,16.44
2019-06-07T08:05:45.680Z,16.51
2019-06-07T08:06:43.402Z,16.47
2019-06-07T08:07:43.397Z,16.51
2019-06-07T08:08:43.382Z,16.62
2019-06-07T08:09:43.531Z,16.59
2019-06-07T08:10:43.372Z,16.65
2019-06-07T08:11:43.378Z,16.67
2019-06-07T08:12:59.065Z,16.69
2019-06-07T08:13:44.328Z,16.70
2019-06-07T08:14:43.320Z,16.75
2019-06-07T08:15:43.318Z,16.85
2019-06-07T08:16:43.300Z,16.78
2019-06-07T08:17:43.329Z,16.85
2019-06-07T08:18:43.290Z,16.82
2019-06-07T08:19:43.266Z,16.88
2019-06-07T08:21:05.036Z,16.98
2019-06-07T08:21:44.249Z,17.06
2019-06-07T08:22:43.241Z,17.00
2019-06-07T08:23:43.233Z,17.12
2019-06-07T08:24:43.266Z,17.14
2019-06-07T08:25:43.212Z,17.17
2019-06-07T08:26:43.190Z,17.24
2019-06-07T08:27:43.180Z,17.28
2019-06-07T08:28:43.169Z,17.30
2019-06-07T08:29:45.487Z,17.27
2019-06-07T08:30:51.259Z,17.42
2019-06-07T08:31:44.138Z,17.33
2019-06-07T08:32:43.128Z,17.45
2019-06-07T08:33:43.122Z,17.42
2019-06-07T08:34:43.106Z,17.40
2019-06-07T08:36:06.044Z,17.38
2019-06-07T08:36:44.099Z,17.58
2019-06-07T08:38:14.912Z,17.66
2019-06-07T08:38:47.846Z,17.63
2019-06-07T08:39:44.053Z,17.74
2019-06-07T08:40:43.076Z,17.76
2019-06-07T08:41:53.976Z,17.86
2019-06-07T08:43:04.574Z,17.87
2019-06-07T08:43:44.009Z,17.94
2019-06-07T08:44:43.003Z,17.98
2019-06-07T08:45:43.022Z,17.96
2019-06-07T08:46:43.004Z,18.01
2019-06-07T08:47:42.968Z,18.07
2019-06-07T08:48:42.958Z,17.98
2019-06-07T08:49:43.017Z,18.05
2019-06-07T08:50:42.965Z,18.11
2019-06-07T08:51:42.930Z,18.26
2019-06-07T08:52:42.918Z,18.31
2019-06-07T08:53:42.905Z,18.35
2019-06-07T08:54:42.894Z,18.46
2019-06-07T08:55:42.891Z,18.44
2019-06-07T08:56:43.511Z,18.50
2019-06-07T08:57:42.859Z,18.50
2019-06-07T08:58:42.849Z,18.51
2019-06-07T08:59:42.841Z,18.56
2019-06-07T09:00:46.504Z,18.60
2019-06-07T09:01:42.817Z,18.66
2019-06-07T09:02:42.809Z,18.71
2019-06-07T09:03:42.796Z,18.84
2019-06-07T09:04:43.277Z,18.79
2019-06-07T09:05:42.800Z,18.94
2019-06-07T09:07:43.751Z,19.02
2019-06-07T09:08:42.745Z,19.13
2019-06-07T09:09:42.733Z,19.13
2019-06-07T09:10:42.739Z,19.30
2019-06-07T09:11:42.711Z,19.30
2019-06-07T09:12:42.701Z,19.30
2019-06-07T09:13:42.691Z,19.25
2019-06-07T09:14:59.815Z,19.38
2019-06-07T09:15:43.683Z,19.52
2019-06-07T09:16:42.666Z,19.61
2019-06-07T09:18:29.774Z,19.58
2019-06-07T09:18:45.114Z,19.72
2019-06-07T09:19:42.628Z,19.76
2019-06-07T09:20:42.659Z,19.79
2019-06-07T09:21:42.604Z,19.80
2019-06-07T09:22:42.653Z,19.87
2019-06-07T09:23:42.586Z,19.94
2019-06-07T09:24:42.572Z,20.07
2019-06-07T09:25:56.617Z,20.02
2019-06-07T09:26:43.568Z,20.17
2019-06-07T09:27:42.541Z,20.20
2019-06-07T09:28:42.535Z,20.22
2019-06-07T09:29:42.522Z,20.23
2019-06-07T09:30:42.511Z,20.40
2019-06-07T09:31:52.674Z,20.51
2019-06-07T09:32:43.495Z,20.51
2019-06-07T09:33:42.475Z,20.63
2019-06-07T09:34:42.466Z,20.64
2019-06-07T09:35:42.464Z,20.76
2019-06-07T09:36:42.452Z,20.78
2019-06-07T09:38:43.421Z,20.87
2019-06-07T09:39:42.442Z,20.81
2019-06-07T09:40:42.406Z,20.87
2019-06-07T09:41:49.287Z,20.93
2019-06-07T09:42:43.380Z,21.06
2019-06-07T09:44:43.357Z,21.09
2019-06-07T09:45:42.351Z,21.08
2019-06-07T09:46:42.384Z,21.13
2019-06-07T09:47:42.327Z,21.24
2019-06-07T09:49:43.310Z,21.36
2019-06-07T09:50:42.297Z,21.40
2019-06-07T09:51:42.324Z,21.51
2019-06-07T09:52:57.757Z,21.58
2019-06-07T09:53:43.263Z,21.52
2019-06-07T09:55:05.849Z,21.58
2019-06-07T09:55:43.242Z,21.63
2019-06-07T09:56:42.235Z,21.66
2019-06-07T09:57:42.239Z,21.75
2019-06-07T09:58:52.449Z,21.81
2019-06-07T09:59:43.201Z,21.90
2019-06-07T10:00:42.949Z,21.91
2019-06-07T10:01:42.184Z,22.08
2019-06-07T10:02:42.169Z,22.12
2019-06-07T10:03:42.162Z,22.11
2019-06-07T10:04:42.165Z,22.26
2019-06-07T10:05:42.138Z,22.26
2019-06-07T10:06:42.151Z,22.29
2019-06-07T10:07:59.566Z,22.33
2019-06-07T10:10:09.918Z,22.31
2019-06-07T10:10:43.427Z,22.41
2019-06-07T10:11:42.078Z,22.48
2019-06-07T10:12:42.063Z,22.44
2019-06-07T10:13:42.052Z,22.48
2019-06-07T10:14:45.126Z,22.51
2019-06-07T10:15:42.042Z,22.48
2019-06-07T10:16:46.760Z,22.49
2019-06-07T10:17:43.008Z,22.41
2019-06-07T10:18:42.002Z,22.52
2019-06-07T10:19:41.986Z,22.61
2019-06-07T10:20:41.976Z,22.64
2019-06-07T10:21:41.976Z,22.69
2019-06-07T10:22:41.989Z,22.69
2019-06-07T10:23:41.958Z,22.86
2019-06-07T10:24:41.936Z,22.82
2019-06-07T10:25:41.931Z,22.82
2019-06-07T10:26:41.933Z,22.81
2019-06-07T10:27:41.904Z,22.79
2019-06-07T10:28:41.891Z,22.89
2019-06-07T10:29:41.882Z,22.96
2019-06-07T10:30:41.891Z,22.96
2019-06-07T10:31:41.868Z,23.01
2019-06-07T10:32:41.847Z,23.07
2019-06-07T10:33:41.848Z,23.11
2019-06-07T10:34:41.826Z,23.12
2019-06-07T10:35:41.815Z,23.25
2019-06-07T10:36:41.842Z,23.34
2019-06-07T10:37:41.795Z,23.45
2019-06-07T10:38:41.851Z,23.54
2019-06-07T10:39:48.641Z,23.54
2019-06-07T10:40:42.759Z,23.54
2019-06-07T10:41:41.760Z,23.59
2019-06-07T10:42:41.741Z,23.56
2019-06-07T10:43:41.739Z,23.68
2019-06-07T10:44:41.724Z,23.69
2019-06-07T10:45:41.706Z,23.68
2019-06-07T10:46:41.744Z,23.75
2019-06-07T10:47:41.685Z,23.69
2019-06-07T10:48:41.690Z,23.75
2019-06-07T10:49:41.666Z,23.78
2019-06-07T10:50:41.655Z,23.77
2019-06-07T10:51:41.656Z,23.84
2019-06-07T10:52:41.635Z,23.90
2019-06-07T10:53:41.623Z,24.00
2019-06-07T10:54:41.617Z,24.00
2019-06-07T10:55:41.602Z,24.04
2019-06-07T10:56:41.600Z,24.09
2019-06-07T10:57:41.582Z,24.14
2019-06-07T10:58:41.574Z,24.23
2019-06-07T10:59:41.559Z,24.30
2019-06-07T11:00:41.572Z,24.44
2019-06-07T11:01:41.550Z,24.41
2019-06-07T11:02:41.534Z,24.46
2019-06-07T11:03:41.516Z,24.41
2019-06-07T11:04:41.506Z,24.48
2019-06-07T11:05:41.496Z,24.56
2019-06-07T11:06:41.488Z,24.61
2019-06-07T11:07:41.500Z,24.59
2019-06-07T11:08:41.464Z,24.53
2019-06-07T11:09:41.456Z,24.66
2019-06-07T11:10:41.443Z,24.66
2019-06-07T11:11:41.435Z,24.77
2019-06-07T11:12:41.436Z,24.84
2019-06-07T11:13:41.414Z,24.94
2019-06-07T11:14:41.412Z,24.89
2019-06-07T11:15:41.391Z,24.87
2019-06-07T11:16:41.380Z,24.92
2019-06-07T11:17:41.383Z,24.89
2019-06-07T11:18:41.360Z,25.04
2019-06-07T11:19:41.349Z,25.14
2019-06-07T11:20:41.339Z,25.20
2019-06-07T11:21:41.327Z,25.26
2019-06-07T11:22:41.326Z,25.27
2019-06-07T11:23:41.307Z,25.39
2019-06-07T11:24:41.304Z,25.44
2019-06-07T11:25:41.290Z,25.42
2019-06-07T11:26:41.276Z,25.56
2019-06-07T11:27:41.277Z,25.49
2019-06-07T11:28:41.254Z,25.64
2019-06-07T11:29:41.243Z,25.71
2019-06-07T11:30:41.232Z,25.67
2019-06-07T11:31:41.233Z,25.74
2019-06-07T11:32:41.309Z,25.79
2019-06-07T11:33:41.201Z,25.82
2019-06-07T11:34:41.190Z,25.89
2019-06-07T11:35:41.181Z,25.94
2019-06-07T11:36:41.169Z,25.90
2019-06-07T11:37:41.170Z,25.94
2019-06-07T11:38:41.150Z,25.93
2019-06-07T11:39:41.141Z,26.11
2019-06-07T11:40:41.128Z,26.16
2019-06-07T11:41:41.117Z,26.19
2019-06-07T11:42:41.122Z,26.29
2019-06-07T11:43:41.098Z,26.36
2019-06-07T11:44:55.758Z,26.41
2019-06-07T11:45:42.075Z,26.44
2019-06-07T11:46:41.072Z,26.54
2019-06-07T11:47:41.065Z,26.56
2019-06-07T11:48:41.044Z,26.66
2019-06-07T11:49:41.037Z,26.65
2019-06-07T11:50:41.024Z,26.71
2019-06-07T11:51:41.012Z,26.86
2019-06-07T11:52:41.013Z,26.88
2019-06-07T11:53:41.002Z,27.05
2019-06-07T11:54:40.982Z,27.11
2019-06-07T11:55:40.973Z,27.06
2019-06-07T11:56:40.959Z,27.23
2019-06-07T11:57:40.960Z,27.31
2019-06-07T11:58:40.938Z,27.35
2019-06-07T11:59:40.935Z,27.46
2019-06-07T12:00:40.923Z,27.45
2019-06-07T12:01:40.907Z,27.46
2019-06-07T12:02:40.910Z,27.65
2019-06-07T12:03:40.954Z,27.68
2019-06-07T12:04:40.876Z,27.86
2019-06-07T12:05:40.864Z,27.84
2019-06-07T12:06:40.856Z,27.87
2019-06-07T12:07:40.860Z,27.99
2019-06-07T12:08:40.832Z,28.03
2019-06-07T12:09:55.495Z,28.11
2019-06-07T12:10:42.850Z,28.03
2019-06-07T12:11:40.804Z,28.09
2019-06-07T12:12:40.806Z,28.33
2019-06-07T12:13:40.782Z,28.45
2019-06-07T12:14:40.771Z,28.61
2019-06-07T12:15:40.764Z,28.61
2019-06-07T12:16:40.755Z,28.50
2019-06-07T12:17:40.764Z,28.67
2019-06-07T12:18:40.730Z,28.73
2019-06-07T12:19:40.729Z,28.88
2019-06-07T12:20:40.709Z,29.00
2019-06-07T12:21:40.746Z,29.08
2019-06-07T12:22:40.704Z,29.17
2019-06-07T12:23:40.683Z,29.29
2019-06-07T12:24:40.668Z,29.51
2019-06-07T12:25:40.658Z,29.74
2019-06-07T12:26:40.654Z,30.06
2019-06-07T12:27:40.637Z,30.22
2019-06-07T12:28:40.630Z,30.66
2019-06-07T12:29:40.617Z,30.98
2019-06-07T12:30:40.609Z,31.60
2019-06-07T12:31:40.601Z,32.29
2019-06-07T12:32:40.588Z,33.05
2019-06-07T12:33:40.583Z,33.96
2019-06-07T12:34:40.573Z,34.78
2019-06-07T12:35:40.560Z,35.73
2019-06-07T12:36:40.555Z,36.35
2019-06-07T12:37:44.205Z,37.20
2019-06-07T12:38:40.534Z,38.15
2019-06-07T12:39:40.523Z,38.92
2019-06-07T12:40:40.515Z,39.70
2019-06-07T12:41:40.506Z,40.60
2019-06-07T12:42:40.498Z,41.32
2019-06-07T12:43:40.490Z,42.15
2019-06-07T12:44:40.481Z,42.77
2019-06-07T12:45:45.237Z,43.40
2019-06-07T12:46:41.464Z,43.89
2019-06-07T12:47:40.454Z,44.39
2019-06-07T12:48:40.448Z,44.66
2019-06-07T12:49:40.437Z,44.98
2019-06-07T12:50:42.950Z,45.16
2019-06-07T12:51:40.426Z,45.29
2019-06-07T12:52:40.417Z,45.17
2019-06-07T12:53:40.411Z,45.26
2019-06-07T12:54:40.400Z,45.68
2019-06-07T12:55:40.389Z,46.36
2019-06-07T12:56:40.381Z,46.60
2019-06-07T12:57:40.374Z,46.75
2019-06-07T12:58:40.367Z,46.84
2019-06-07T12:59:40.357Z,47.21
2019-06-07T13:00:40.349Z,47.59
2019-06-07T13:01:40.342Z,47.74
2019-06-07T13:02:40.337Z,47.72